Time;durP1;ratioP1;P1;durP2;ratioP2;P2;SDS_P1;SDS_P2;PMS_P1;PMS_P2;Temp;Humidity;BMP_temperature;BMP_pressure;BME280_temperature;BME280_humidity;BME280_pressure;Samples;Min_cycle;Max_cycle;Signal;HPM_P1;HPM_P2
2021/01/09 00:01:51;;;;;;;34.22;31.02;;;;;;;;;;5116734;28;20208;-85
2021/01/09 00:04:17;;;;;;;34.25;31.45;;;;;;;;;;5117291;28;20212;-85
2021/01/09 00:06:45;;;;;;;34.15;31.15;;;;;;;;;;5116881;28;20202;-85
2021/01/09 00:09:12;;;;;;;34.65;31.58;;;;;;;;;;5117056;28;20186;-85
2021/01/09 00:11:39;;;;;;;35.20;31.95;;;;;;;;;;5117790;28;20190;-85
2021/01/09 00:14:06;;;;;;;35.70;32.28;;;;;;;;;;5118576;28;20543;-85
2021/01/09 00:16:33;;;;;;;35.65;32.55;;;;;;;;;;5120306;28;20190;-85
2021/01/09 00:19:00;;;;;;;35.58;32.47;;;;;;;;;;5119213;28;20255;-86
2021/01/09 00:21:34;;;;;;;34.85;31.83;;;;;;;;;;5116940;28;20193;-86
2021/01/09 00:24:03;;;;;;;32.90;30.20;;;;;;;;;;5116945;28;20205;-86
2021/01/09 00:26:30;;;;;;;35.47;31.63;;;;;;;;;;5115873;28;20237;-85
2021/01/09 00:28:57;;;;;;;34.28;30.92;;;;;;;;;;5116402;28;20267;-86
2021/01/09 00:31:24;;;;;;;34.60;31.50;;;;;;;;;;5116044;28;20213;-85
2021/01/09 00:33:50;;;;;;;34.78;31.65;;;;;;;;;;5115880;28;20573;-86
2021/01/09 00:36:17;;;;;;;33.75;30.80;;;;;;;;;;5115992;28;20193;-85
2021/01/09 00:38:44;;;;;;;32.95;30.05;;;;;;;;;;5115833;28;20206;-86
2021/01/09 00:41:12;;;;;;;36.92;33.17;;;;;;;;;;5116051;28;20252;-85
2021/01/09 00:43:39;;;;;;;32.28;29.52;;;;;;;;;;5115880;28;20213;-86
2021/01/09 00:46:06;;;;;;;32.83;29.92;;;;;;;;;;5115797;28;20194;-86
2021/01/09 00:48:33;;;;;;;33.10;30.23;;;;;;;;;;5115406;28;20197;-86
2021/01/09 00:51:00;;;;;;;33.88;30.95;;;;;;;;;;5115414;28;20198;-86
2021/01/09 00:53:27;;;;;;;32.80;30.08;;;;;;;;;;5115321;28;20189;-86
2021/01/09 00:55:53;;;;;;;32.15;29.38;;;;;;;;;;5116222;28;20213;-86
2021/01/09 00:58:21;;;;;;;29.75;27.23;;;;;;;;;;5115507;28;20194;-86
2021/01/09 01:00:48;;;;;;;30.38;28.13;;;;;;;;;;5115217;28;20706;-86
2021/01/09 01:03:15;;;;;;;30.80;28.15;;;;;;;;;;5115504;28;20186;-86
2021/01/09 01:05:45;;;;;;;28.80;26.67;;;;;;;;;;5115075;28;20189;-86
2021/01/09 01:08:12;;;;;;;29.05;26.63;;;;;;;;;;5114529;28;20540;-85
2021/01/09 01:10:39;;;;;;;28.00;25.88;;;;;;;;;;5115256;28;20208;-85
2021/01/09 01:13:06;;;;;;;27.45;25.50;;;;;;;;;;5115479;28;20620;-85
2021/01/09 01:15:34;;;;;;;28.63;26.52;;;;;;;;;;5114766;28;20668;-85
2021/01/09 01:18:01;;;;;;;26.77;24.65;;;;;;;;;;5115114;28;20217;-86
2021/01/09 01:20:28;;;;;;;28.75;26.55;;;;;;;;;;5115218;28;20221;-85
2021/01/09 01:22:55;;;;;;;27.33;25.23;;;;;;;;;;5114953;28;20221;-85
2021/01/09 01:25:22;;;;;;;26.77;24.88;;;;;;;;;;5114935;28;20598;-85
2021/01/09 01:27:49;;;;;;;26.48;24.65;;;;;;;;;;5114883;28;20644;-85
2021/01/09 01:30:16;;;;;;;27.10;25.05;;;;;;;;;;5115024;28;20187;-85
2021/01/09 01:32:44;;;;;;;27.25;25.05;;;;;;;;;;5114859;28;20218;-85
2021/01/09 01:35:11;;;;;;;26.15;24.25;;;;;;;;;;5114706;28;20187;-85
2021/01/09 01:37:38;;;;;;;26.70;24.58;;;;;;;;;;5114883;28;20659;-85
2021/01/09 01:40:06;;;;;;;25.83;23.98;;;;;;;;;;5114582;28;20249;-86
2021/01/09 01:42:32;;;;;;;26.98;25.10;;;;;;;;;;5114636;28;20628;-85
2021/01/09 01:44:59;;;;;;;26.73;24.73;;;;;;;;;;5115280;28;20210;-85
2021/01/09 01:47:26;;;;;;;26.38;24.48;;;;;;;;;;5114804;28;20190;-85
2021/01/09 01:49:55;;;;;;;24.95;23.23;;;;;;;;;;5114833;28;20191;-85
2021/01/09 01:52:21;;;;;;;26.77;24.88;;;;;;;;;;5114512;28;20186;-85
2021/01/09 01:54:49;;;;;;;25.30;23.60;;;;;;;;;;5114611;28;20197;-86
2021/01/09 01:57:16;;;;;;;28.00;26.00;;;;;;;;;;5114796;28;20189;-85
2021/01/09 01:59:43;;;;;;;25.10;23.40;;;;;;;;;;5114757;28;20591;-85
2021/01/09 02:02:11;;;;;;;27.15;25.10;;;;;;;;;;5114814;28;20221;-85
2021/01/09 02:04:37;;;;;;;27.13;25.15;;;;;;;;;;5114542;28;20187;-85
2021/01/09 02:07:07;;;;;;;25.92;23.98;;;;;;;;;;5114617;28;20207;-85
2021/01/09 02:09:36;;;;;;;27.83;25.63;;;;;;;;;;5114825;28;20648;-85
2021/01/09 02:12:05;;;;;;;26.90;25.00;;;;;;;;;;5114662;28;20671;-86
2021/01/09 02:14:38;;;;;;;26.85;24.85;;;;;;;;;;5114600;28;20187;-85
2021/01/09 02:17:06;;;;;;;28.08;25.83;;;;;;;;;;5114528;28;20197;-85
2021/01/09 02:19:35;;;;;;;26.83;24.83;;;;;;;;;;5114685;28;20225;-85
2021/01/09 02:22:04;;;;;;;26.63;24.73;;;;;;;;;;5115033;28;20194;-85
2021/01/09 02:24:32;;;;;;;26.25;24.20;;;;;;;;;;5114654;28;20196;-85
2021/01/09 02:26:59;;;;;;;25.52;23.83;;;;;;;;;;5114323;28;20191;-85
2021/01/09 02:29:29;;;;;;;25.65;23.95;;;;;;;;;;5114215;28;20596;-85
2021/01/09 02:31:57;;;;;;;26.08;24.15;;;;;;;;;;5114175;28;20186;-85
2021/01/09 02:34:25;;;;;;;26.80;25.00;;;;;;;;;;5114144;28;20233;-85
2021/01/09 02:36:52;;;;;;;27.13;25.27;;;;;;;;;;5114361;28;20194;-85
2021/01/09 02:39:19;;;;;;;26.83;24.98;;;;;;;;;;5114437;28;20597;-85
2021/01/09 02:41:48;;;;;;;27.60;25.65;;;;;;;;;;5114348;28;20182;-85
2021/01/09 02:44:16;;;;;;;27.27;25.38;;;;;;;;;;5114166;28;20183;-85
2021/01/09 02:46:42;;;;;;;26.85;24.88;;;;;;;;;;5114086;28;20226;-85
2021/01/09 02:49:09;;;;;;;26.13;24.50;;;;;;;;;;5113707;28;20255;-85
2021/01/09 02:51:36;;;;;;;27.35;25.35;;;;;;;;;;5114004;28;20191;-85
2021/01/09 02:54:03;;;;;;;26.20;24.20;;;;;;;;;;5114956;28;20198;-85
2021/01/09 02:56:30;;;;;;;26.80;25.00;;;;;;;;;;5117581;28;20232;-85
2021/01/09 02:58:58;;;;;;;28.38;26.25;;;;;;;;;;5117940;28;20186;-85
2021/01/09 03:01:28;;;;;;;26.50;24.77;;;;;;;;;;5116920;28;20191;-85
2021/01/09 03:03:55;;;;;;;26.40;24.50;;;;;;;;;;5117883;28;20198;-85
2021/01/09 03:06:22;;;;;;;26.90;25.05;;;;;;;;;;5117468;28;20190;-85
2021/01/09 03:08:49;;;;;;;27.27;25.38;;;;;;;;;;5117763;28;20186;-85
2021/01/09 03:11:16;;;;;;;26.92;24.92;;;;;;;;;;5117673;28;20190;-85
2021/01/09 03:13:43;;;;;;;28.55;26.58;;;;;;;;;;5118114;28;20198;-85
2021/01/09 03:16:11;;;;;;;27.38;25.33;;;;;;;;;;5117582;28;20193;-86
2021/01/09 03:18:37;;;;;;;27.10;25.20;;;;;;;;;;5117603;28;20182;-85
2021/01/09 03:21:05;;;;;;;27.58;25.70;;;;;;;;;;5116956;28;20222;-85
2021/01/09 03:23:32;;;;;;;26.55;24.75;;;;;;;;;;5117456;28;20191;-85
2021/01/09 03:25:59;;;;;;;26.77;24.95;;;;;;;;;;5117146;28;20233;-85
2021/01/09 03:28:26;;;;;;;26.55;24.75;;;;;;;;;;5117282;28;20195;-85
2021/01/09 03:30:53;;;;;;;28.02;25.70;;;;;;;;;;5117309;27;20555;-85
2021/01/09 03:33:21;;;;;;;27.77;25.73;;;;;;;;;;5117078;28;20230;-86
2021/01/09 03:35:47;;;;;;;27.58;25.58;;;;;;;;;;5117321;28;20182;-85
2021/01/09 03:38:14;;;;;;;28.65;26.65;;;;;;;;;;5117178;28;20198;-86
2021/01/09 03:40:41;;;;;;;28.67;26.58;;;;;;;;;;5117027;28;20214;-86
2021/01/09 03:43:08;;;;;;;26.92;25.02;;;;;;;;;;5117142;28;20197;-85
2021/01/09 03:45:35;;;;;;;27.92;25.83;;;;;;;;;;5117028;28;20202;-85
2021/01/09 03:48:02;;;;;;;27.00;25.10;;;;;;;;;;5117532;28;20182;-85
2021/01/09 03:50:30;;;;;;;28.45;26.27;;;;;;;;;;5116938;28;20632;-86
2021/01/09 03:52:56;;;;;;;27.90;25.83;;;;;;;;;;5117364;28;20186;-85
2021/01/09 03:55:23;;;;;;;27.17;25.25;;;;;;;;;;5118416;28;20186;-85
2021/01/09 03:57:50;;;;;;;27.05;25.15;;;;;;;;;;5118032;28;20205;-85
2021/01/09 04:00:18;;;;;;;27.70;25.65;;;;;;;;;;5117073;28;20218;-85
2021/01/09 04:02:44;;;;;;;28.10;25.90;;;;;;;;;;5118780;28;20194;-85
2021/01/09 04:05:12;;;;;;;27.20;25.10;;;;;;;;;;5117662;28;20640;-85
2021/01/09 04:07:40;;;;;;;27.27;25.17;;;;;;;;;;5117452;28;20186;-86
2021/01/09 04:10:07;;;;;;;27.13;25.15;;;;;;;;;;5117175;28;20259;-85
2021/01/09 04:12:34;;;;;;;28.05;26.00;;;;;;;;;;5116799;28;20194;-85
2021/01/09 04:15:01;;;;;;;27.90;25.85;;;;;;;;;;5116381;28;20193;-85
2021/01/09 04:17:28;;;;;;;27.77;25.67;;;;;;;;;;5116522;28;20544;-85
2021/01/09 04:19:55;;;;;;;26.65;24.73;;;;;;;;;;5116154;28;20226;-86
2021/01/09 04:22:22;;;;;;;26.70;24.80;;;;;;;;;;5116290;28;20224;-85
2021/01/09 04:24:50;;;;;;;27.95;25.95;;;;;;;;;;5115791;28;20228;-85
2021/01/09 04:27:17;;;;;;;28.30;26.25;;;;;;;;;;5115921;28;20183;-86
2021/01/09 04:29:44;;;;;;;28.23;26.17;;;;;;;;;;5116086;28;20205;-86
2021/01/09 04:32:11;;;;;;;27.23;25.20;;;;;;;;;;5116028;28;20190;-85
2021/01/09 04:34:38;;;;;;;27.67;25.67;;;;;;;;;;5116092;28;20531;-85
2021/01/09 04:37:05;;;;;;;27.85;25.85;;;;;;;;;;5116059;28;20236;-85
2021/01/09 04:39:32;;;;;;;27.13;25.20;;;;;;;;;;5115802;28;20210;-86
2021/01/09 04:42:00;;;;;;;28.98;26.48;;;;;;;;;;5115679;28;20247;-85
2021/01/09 04:44:27;;;;;;;28.25;26.05;;;;;;;;;;5116001;28;20187;-86
2021/01/09 04:46:55;;;;;;;29.73;27.42;;;;;;;;;;5116936;28;20202;-86
2021/01/09 04:49:22;;;;;;;27.10;25.00;;;;;;;;;;5115863;27;20183;-85
2021/01/09 04:51:50;;;;;;;28.55;26.50;;;;;;;;;;5115856;28;20559;-85
2021/01/09 04:54:19;;;;;;;27.83;25.73;;;;;;;;;;5115956;28;20202;-85
2021/01/09 04:56:47;;;;;;;27.35;25.45;;;;;;;;;;5116365;28;20616;-86
2021/01/09 04:59:15;;;;;;;27.63;25.50;;;;;;;;;;5115762;28;20635;-86
2021/01/09 05:01:42;;;;;;;28.73;26.55;;;;;;;;;;5115804;28;20186;-86
2021/01/09 05:04:09;;;;;;;27.35;25.35;;;;;;;;;;5115730;28;20199;-86
2021/01/09 05:06:36;;;;;;;27.05;25.10;;;;;;;;;;5115784;28;20183;-86
2021/01/09 05:09:03;;;;;;;28.13;26.05;;;;;;;;;;5115577;28;20190;-86
2021/01/09 05:11:32;;;;;;;29.25;26.95;;;;;;;;;;5115284;28;20210;-86
2021/01/09 05:13:59;;;;;;;27.30;25.10;;;;;;;;;;5115820;28;20183;-86
2021/01/09 05:16:27;;;;;;;29.13;26.75;;;;;;;;;;5115021;28;20198;-86
2021/01/09 05:18:54;;;;;;;29.20;26.40;;;;;;;;;;5114976;28;20193;-86
2021/01/09 05:21:21;;;;;;;27.95;25.95;;;;;;;;;;5114820;28;20598;-86
2021/01/09 05:23:52;;;;;;;26.75;24.85;;;;;;;;;;5114275;28;20674;-86
2021/01/09 05:26:19;;;;;;;27.75;25.75;;;;;;;;;;5114904;28;20233;-86
2021/01/09 05:28:49;;;;;;;27.33;25.30;;;;;;;;;;5115290;28;20191;-86
2021/01/09 05:31:17;;;;;;;27.45;25.35;;;;;;;;;;5113979;28;20201;-86
2021/01/09 05:33:45;;;;;;;28.23;26.13;;;;;;;;;;5115678;28;20221;-86
2021/01/09 05:36:12;;;;;;;28.88;26.77;;;;;;;;;;5115415;28;20186;-87
2021/01/09 05:38:40;;;;;;;28.60;26.60;;;;;;;;;;5115222;28;20205;-85
2021/01/09 05:41:07;;;;;;;27.35;25.42;;;;;;;;;;5114778;28;20580;-86
2021/01/09 05:43:34;;;;;;;28.13;26.10;;;;;;;;;;5115191;28;20240;-86
2021/01/09 05:46:01;;;;;;;27.95;25.98;;;;;;;;;;5114916;28;20186;-86
2021/01/09 05:48:29;;;;;;;29.65;27.27;;;;;;;;;;5115228;28;20198;-86
2021/01/09 05:50:57;;;;;;;28.85;26.55;;;;;;;;;;5114715;28;20210;-86
2021/01/09 05:53:43;;;;;;;29.05;26.85;;;;;;;;;;5114876;28;20186;-86
2021/01/09 05:56:11;;;;;;;28.77;26.63;;;;;;;;;;5115350;28;20202;-85
2021/01/09 05:58:38;;;;;;;27.48;25.27;;;;;;;;;;5114632;28;20187;-86
2021/01/09 06:01:07;;;;;;;30.13;27.92;;;;;;;;;;5114724;28;20222;-86
2021/01/09 06:03:41;;;;;;;30.63;28.00;;;;;;;;;;5114395;28;20574;-86
2021/01/09 06:06:26;;;;;;;30.63;27.95;;;;;;;;;;5114586;28;20269;-86
2021/01/09 06:08:59;;;;;;;28.92;26.67;;;;;;;;;;5114450;28;20191;-86
2021/01/09 06:11:31;;;;;;;31.33;28.73;;;;;;;;;;5113461;28;20247;-86
2021/01/09 06:14:00;;;;;;;28.80;26.55;;;;;;;;;;5114337;28;20192;-86
2021/01/09 06:16:29;;;;;;;31.30;28.73;;;;;;;;;;5114722;28;20240;-86
2021/01/09 06:18:57;;;;;;;31.50;28.90;;;;;;;;;;5113688;28;20215;-86
2021/01/09 06:21:24;;;;;;;31.27;28.40;;;;;;;;;;5114595;28;20221;-86
2021/01/09 06:23:52;;;;;;;31.88;29.20;;;;;;;;;;5114480;28;20187;-86
2021/01/09 06:26:20;;;;;;;33.78;30.85;;;;;;;;;;5114162;28;20226;-86
2021/01/09 06:28:47;;;;;;;31.77;29.10;;;;;;;;;;5116602;28;20190;-86
2021/01/09 06:31:19;;;;;;;31.38;28.80;;;;;;;;;;5118282;28;20213;-86
2021/01/09 06:33:47;;;;;;;31.08;28.50;;;;;;;;;;5118339;27;20218;-86
2021/01/09 06:36:15;;;;;;;33.78;30.65;;;;;;;;;;5118403;28;20241;-86
2021/01/09 06:38:42;;;;;;;34.58;31.33;;;;;;;;;;5118685;28;20198;-86
2021/01/09 06:41:10;;;;;;;34.65;31.60;;;;;;;;;;5117726;28;20217;-86
2021/01/09 06:43:38;;;;;;;34.15;31.05;;;;;;;;;;5118126;28;20190;-86
2021/01/09 06:46:08;;;;;;;34.53;31.33;;;;;;;;;;5118337;27;20195;-86
2021/01/09 06:48:36;;;;;;;33.47;30.50;;;;;;;;;;5118237;28;20190;-86
2021/01/09 06:51:03;;;;;;;35.42;32.40;;;;;;;;;;5117858;28;20190;-86
2021/01/09 06:53:30;;;;;;;35.03;31.73;;;;;;;;;;5118042;28;20564;-86
2021/01/09 06:55:57;;;;;;;35.42;32.15;;;;;;;;;;5116881;28;20203;-86
2021/01/09 06:58:29;;;;;;;37.17;33.38;;;;;;;;;;5118445;28;20205;-86
2021/01/09 07:01:10;;;;;;;36.88;32.88;;;;;;;;;;5117503;28;20308;-86
2021/01/09 07:03:46;;;;;;;36.63;33.13;;;;;;;;;;5112811;27;20675;-86
2021/01/09 07:06:13;;;;;;;37.85;34.10;;;;;;;;;;5117563;28;20594;-86
2021/01/09 07:08:43;;;;;;;37.50;33.85;;;;;;;;;;5117183;28;20209;-86
2021/01/09 07:11:12;;;;;;;36.00;32.70;;;;;;;;;;5117460;28;20195;-86
2021/01/09 07:13:39;;;;;;;36.55;33.20;;;;;;;;;;5117674;28;20221;-86
2021/01/09 07:16:07;;;;;;;39.08;35.03;;;;;;;;;;5117617;28;20194;-86
2021/01/09 07:18:35;;;;;;;37.90;34.35;;;;;;;;;;5116621;28;20194;-86
2021/01/09 07:21:03;;;;;;;35.67;32.55;;;;;;;;;;5116961;28;20691;-86
2021/01/09 07:23:30;;;;;;;36.55;33.13;;;;;;;;;;5117391;28;20191;-86
2021/01/09 07:25:58;;;;;;;37.45;34.00;;;;;;;;;;5117121;27;20233;-86
2021/01/09 07:28:25;;;;;;;39.08;35.38;;;;;;;;;;5114454;28;20186;-86
2021/01/09 07:31:02;;;;;;;35.85;32.53;;;;;;;;;;5076231;28;20191;-86
2021/01/09 07:33:31;;;;;;;37.38;33.88;;;;;;;;;;5076582;28;20219;-85
2021/01/09 07:35:58;;;;;;;38.47;34.78;;;;;;;;;;5076760;28;20184;-86
2021/01/09 07:38:26;;;;;;;36.70;33.38;;;;;;;;;;5076860;28;20191;-86
2021/01/09 07:40:54;;;;;;;38.65;34.85;;;;;;;;;;5075998;28;20261;-86
2021/01/09 07:43:45;;;;;;;35.67;32.15;;;;;;;;;;5077207;28;20189;-86
2021/01/09 07:46:26;;;;;;;36.88;33.30;;;;;;;;;;5062593;28;20203;-86
2021/01/09 07:48:54;;;;;;;36.70;33.20;;;;;;;;;;5078596;28;20238;-83
2021/01/09 07:51:21;;;;;;;39.17;32.85;;;;;;;;;;5077780;28;20199;-82
2021/01/09 07:53:49;;;;;;;37.75;34.10;;;;;;;;;;5076472;28;20195;-82
2021/01/09 07:56:35;;;;;;;38.40;34.97;;;;;;;;;;5076028;28;20199;-86
2021/01/09 07:59:02;;;;;;;38.10;34.40;;;;;;;;;;5077044;28;20187;-86
2021/01/09 08:01:29;;;;;;;38.03;34.13;;;;;;;;;;5076110;28;20677;-83
2021/01/09 08:03:57;;;;;;;35.92;32.55;;;;;;;;;;5075624;28;20188;-81
2021/01/09 08:06:24;;;;;;;39.88;35.72;;;;;;;;;;5075545;28;20194;-82
2021/01/09 08:08:52;;;;;;;39.67;35.90;;;;;;;;;;5075597;28;20194;-85
2021/01/09 08:11:19;;;;;;;40.88;36.60;;;;;;;;;;5076077;28;20199;-85
2021/01/09 08:13:46;;;;;;;41.30;37.25;;;;;;;;;;5075743;28;20196;-87
2021/01/09 08:16:12;;;;;;;39.00;35.28;;;;;;;;;;5075787;28;20183;-83
2021/01/09 08:18:39;;;;;;;38.10;34.33;;;;;;;;;;5075288;28;20183;-81
2021/01/09 08:21:06;;;;;;;36.80;33.13;;;;;;;;;;5073923;28;20220;-82
2021/01/09 08:23:33;;;;;;;39.83;35.55;;;;;;;;;;5074966;28;20192;-81
2021/01/09 08:26:11;;;;;;;37.92;34.22;;;;;;;;;;5074709;28;20242;-81
2021/01/09 08:28:38;;;;;;;38.10;34.35;;;;;;;;;;5073899;28;20233;-82
2021/01/09 08:31:08;;;;;;;38.35;34.58;;;;;;;;;;5073762;28;20203;-82
2021/01/09 08:33:35;;;;;;;40.05;35.75;;;;;;;;;;5075226;28;20630;-82
2021/01/09 08:36:02;;;;;;;39.97;36.05;;;;;;;;;;5073587;28;20187;-81
2021/01/09 08:38:29;;;;;;;36.33;32.83;;;;;;;;;;5074523;28;20188;-78
2021/01/09 08:40:57;;;;;;;37.25;33.45;;;;;;;;;;5074481;28;20231;-84
2021/01/09 08:43:25;;;;;;;37.58;33.92;;;;;;;;;;5074957;28;20555;-80
2021/01/09 08:45:53;;;;;;;38.53;34.72;;;;;;;;;;5074674;28;20188;-83
2021/01/09 08:48:21;;;;;;;40.13;36.13;;;;;;;;;;5073699;28;20199;-83
2021/01/09 08:50:58;;;;;;;37.60;33.85;;;;;;;;;;5074257;28;20191;-82
2021/01/09 08:53:26;;;;;;;37.45;33.80;;;;;;;;;;5074248;28;20191;-84
2021/01/09 08:55:56;;;;;;;37.15;33.35;;;;;;;;;;5074574;28;20203;-82
2021/01/09 08:58:23;;;;;;;36.40;32.80;;;;;;;;;;5073139;28;20196;-82
2021/01/09 09:00:51;;;;;;;37.40;33.80;;;;;;;;;;5074055;28;20674;-83
2021/01/09 09:03:18;;;;;;;37.80;34.10;;;;;;;;;;5074448;28;20192;-82
2021/01/09 09:05:48;;;;;;;37.60;33.85;;;;;;;;;;5074144;28;20688;-83
2021/01/09 09:08:16;;;;;;;38.88;34.92;;;;;;;;;;5074261;28;20195;-83
2021/01/09 09:10:46;;;;;;;37.20;33.40;;;;;;;;;;5074168;28;20199;-80
2021/01/09 09:13:19;;;;;;;38.80;34.65;;;;;;;;;;5074536;28;20196;-81
2021/01/09 09:15:46;;;;;;;38.63;34.92;;;;;;;;;;5074555;28;20238;-85
2021/01/09 09:18:14;;;;;;;40.45;33.60;;;;;;;;;;5074248;28;20230;-78
2021/01/09 09:20:45;;;;;;;39.30;35.35;;;;;;;;;;5073563;28;20215;-76
2021/01/09 09:23:19;;;;;;;37.30;33.80;;;;;;;;;;5075014;28;20200;-91
2021/01/09 09:25:46;;;;;;;35.92;32.58;;;;;;;;;;5075102;28;20265;-80
2021/01/09 09:28:13;;;;;;;38.67;34.55;;;;;;;;;;5074408;28;20207;-79
2021/01/09 09:30:40;;;;;;;36.83;33.38;;;;;;;;;;5071345;28;20200;-77
2021/01/09 09:33:15;;;;;;;38.13;34.25;;;;;;;;;;5073944;28;20619;-80
2021/01/09 09:35:42;;;;;;;37.22;33.63;;;;;;;;;;5073748;28;20187;-79
2021/01/09 09:38:11;;;;;;;35.60;32.25;;;;;;;;;;5074203;28;20192;-83
2021/01/09 09:40:38;;;;;;;35.38;32.05;;;;;;;;;;5074051;28;20219;-81
2021/01/09 09:43:12;;;;;;;36.60;33.00;;;;;;;;;;5073569;28;20195;-82
2021/01/09 09:45:39;;;;;;;37.15;33.50;;;;;;;;;;5072886;28;20503;-82
2021/01/09 09:48:06;;;;;;;36.50;33.10;;;;;;;;;;5073511;28;20218;-82
2021/01/09 09:50:36;;;;;;;36.85;33.42;;;;;;;;;;5073828;28;20183;-80
2021/01/09 09:53:05;;;;;;;35.65;32.25;;;;;;;;;;5073553;28;20580;-78
2021/01/09 09:55:32;;;;;;;35.45;31.90;;;;;;;;;;5073309;28;20633;-78
2021/01/09 09:58:08;;;;;;;36.08;32.67;;;;;;;;;;5072357;28;20208;-79
2021/01/09 10:00:41;;;;;;;33.95;30.95;;;;;;;;;;5073274;28;20203;-78
2021/01/09 10:03:08;;;;;;;61.58;38.10;;;;;;;;;;5074425;28;20188;-76
2021/01/09 10:05:36;;;;;;;30.83;27.92;;;;;;;;;;5078169;28;20241;-84
2021/01/09 10:08:13;;;;;;;34.80;31.60;;;;;;;;;;5077758;28;20194;-84
2021/01/09 10:10:40;;;;;;;32.95;29.95;;;;;;;;;;5076559;28;20199;-84
2021/01/09 10:13:07;;;;;;;37.05;31.60;;;;;;;;;;5077839;28;20637;-84
2021/01/09 10:15:34;;;;;;;33.75;30.80;;;;;;;;;;5078057;28;20188;-82
2021/01/09 10:18:01;;;;;;;33.28;30.42;;;;;;;;;;5078053;28;20212;-82
2021/01/09 10:20:28;;;;;;;34.15;30.75;;;;;;;;;;5077152;28;20222;-81
2021/01/09 10:22:56;;;;;;;33.25;30.15;;;;;;;;;;5077069;28;20451;-80
2021/01/09 10:25:23;;;;;;;33.25;30.25;;;;;;;;;;5077261;28;20268;-81
2021/01/09 10:27:51;;;;;;;31.90;28.85;;;;;;;;;;5077210;28;20646;-81
2021/01/09 10:30:19;;;;;;;34.55;31.35;;;;;;;;;;5077197;28;20184;-82
2021/01/09 10:32:46;;;;;;;45.50;41.45;;;;;;;;;;5077023;28;20253;-76
2021/01/09 10:35:13;;;;;;;42.58;38.58;;;;;;;;;;5075573;28;20195;-79
2021/01/09 10:37:40;;;;;;;41.53;37.85;;;;;;;;;;5077033;28;20202;-78
2021/01/09 10:40:09;;;;;;;38.95;35.63;;;;;;;;;;5076561;28;20212;-78
2021/01/09 10:42:36;;;;;;;41.63;38.00;;;;;;;;;;5076694;28;20219;-78
2021/01/09 10:45:03;;;;;;;41.30;37.50;;;;;;;;;;5076697;28;20257;-80
2021/01/09 10:47:30;;;;;;;42.00;38.35;;;;;;;;;;5076795;28;20199;-79
2021/01/09 10:49:57;;;;;;;41.70;37.80;;;;;;;;;;5076688;28;20192;-78
2021/01/09 10:52:24;;;;;;;43.03;38.45;;;;;;;;;;5076621;28;20184;-77
2021/01/09 10:54:51;;;;;;;40.85;36.78;;;;;;;;;;5076511;28;20200;-81
2021/01/09 10:57:19;;;;;;;41.63;37.33;;;;;;;;;;5077013;28;20194;-82
2021/01/09 10:59:46;;;;;;;46.38;41.97;;;;;;;;;;5076820;28;20203;-76
2021/01/09 11:02:13;;;;;;;42.15;37.75;;;;;;;;;;5075283;28;20641;-79
2021/01/09 11:04:40;;;;;;;42.50;38.38;;;;;;;;;;5076921;28;20183;-82
2021/01/09 11:07:06;;;;;;;44.10;40.10;;;;;;;;;;5075988;28;20188;-84
2021/01/09 11:09:33;;;;;;;45.47;41.38;;;;;;;;;;5076797;28;20196;-83
2021/01/09 11:12:00;;;;;;;44.90;40.97;;;;;;;;;;5075966;28;20204;-82
2021/01/09 11:14:28;;;;;;;42.60;38.50;;;;;;;;;;5076575;28;20281;-86
2021/01/09 11:16:55;;;;;;;41.85;38.08;;;;;;;;;;5076566;28;20195;-84
2021/01/09 11:19:22;;;;;;;47.00;42.83;;;;;;;;;;5076203;28;20209;-77
2021/01/09 11:21:49;;;;;;;41.35;37.78;;;;;;;;;;5076712;28;20216;-83
2021/01/09 11:24:16;;;;;;;40.80;37.15;;;;;;;;;;5075251;28;20196;-82
2021/01/09 11:26:43;;;;;;;39.10;35.78;;;;;;;;;;5076222;28;20237;-79
2021/01/09 11:29:10;;;;;;;41.47;38.20;;;;;;;;;;5075883;28;20200;-79
2021/01/09 11:31:38;;;;;;;37.63;34.17;;;;;;;;;;5076110;28;20191;-80
2021/01/09 11:34:05;;;;;;;35.25;32.17;;;;;;;;;;5076048;28;20223;-88
2021/01/09 11:36:31;;;;;;;37.85;34.20;;;;;;;;;;5077170;28;20185;-90
2021/01/09 11:38:58;;;;;;;37.08;33.28;;;;;;;;;;5077232;28;20193;-89
2021/01/09 11:41:25;;;;;;;35.40;32.13;;;;;;;;;;5074852;28;20227;-89
2021/01/09 11:43:52;;;;;;;35.22;32.10;;;;;;;;;;5076203;28;20195;-86
2021/01/09 11:46:26;;;;;;;35.72;32.70;;;;;;;;;;5076398;28;20196;-86
2021/01/09 11:48:54;;;;;;;36.05;32.90;;;;;;;;;;5075863;28;20187;-79
2021/01/09 11:51:24;;;;;;;35.08;32.13;;;;;;;;;;5076345;28;20188;-90
2021/01/09 11:53:52;;;;;;;37.83;34.13;;;;;;;;;;5076324;28;20188;-89
2021/01/09 11:56:22;;;;;;;36.72;33.28;;;;;;;;;;5076302;28;20551;-88
2021/01/09 11:58:49;;;;;;;40.20;36.03;;;;;;;;;;5074591;28;20200;-87
2021/01/09 12:01:16;;;;;;;37.05;33.50;;;;;;;;;;5074770;28;20219;-84
2021/01/09 12:03:43;;;;;;;36.22;32.83;;;;;;;;;;5076008;28;20214;-84
2021/01/09 12:06:17;;;;;;;35.90;32.53;;;;;;;;;;5075198;28;20191;-81
2021/01/09 12:08:44;;;;;;;35.85;32.50;;;;;;;;;;5075485;28;20267;-82
2021/01/09 12:11:10;;;;;;;31.98;29.38;;;;;;;;;;5075411;28;20641;-82
2021/01/09 12:13:38;;;;;;;36.15;32.75;;;;;;;;;;5088996;28;20186;-82
2021/01/09 12:16:06;;;;;;;35.17;31.95;;;;;;;;;;5095982;28;20651;-89
2021/01/09 12:18:33;;;;;;;35.15;31.85;;;;;;;;;;5096270;28;20187;-78
2021/01/09 12:21:00;;;;;;;36.40;32.65;;;;;;;;;;5095586;28;20225;-82
2021/01/09 12:23:28;;;;;;;37.05;33.25;;;;;;;;;;5095625;28;20194;-81
2021/01/09 12:25:55;;;;;;;36.08;32.78;;;;;;;;;;5095528;28;20589;-85
2021/01/09 12:28:22;;;;;;;37.70;34.15;;;;;;;;;;5095583;28;20198;-87
2021/01/09 12:30:49;;;;;;;37.15;33.50;;;;;;;;;;5095553;28;20195;-87
2021/01/09 12:33:18;;;;;;;34.60;31.33;;;;;;;;;;5095729;28;20225;-88
2021/01/09 12:35:45;;;;;;;36.47;33.15;;;;;;;;;;5095608;28;20199;-96
2021/01/09 12:38:11;;;;;;;38.00;34.40;;;;;;;;;;5111717;28;20241;-96
2021/01/09 12:40:40;;;;;;;38.55;34.72;;;;;;;;;;5113171;22;20245;-92
2021/01/09 12:43:06;;;;;;;37.50;33.22;;;;;;;;;;5096459;28;20209;-93
2021/01/09 12:45:34;;;;;;;40.58;35.10;;;;;;;;;;5095470;28;20191;-92
2021/01/09 12:48:01;;;;;;;39.92;35.38;;;;;;;;;;5095787;28;20278;-96
2021/01/09 12:50:28;;;;;;;38.83;34.67;;;;;;;;;;5093002;28;20221;-95
2021/01/09 12:52:56;;;;;;;41.85;35.53;;;;;;;;;;5087086;28;20538;-91
2021/01/09 12:55:23;;;;;;;38.58;34.83;;;;;;;;;;5093084;28;20201;-95
2021/01/09 12:57:53;;;;;;;37.85;33.80;;;;;;;;;;5081967;28;20196;-96
2021/01/09 13:00:20;;;;;;;37.28;33.35;;;;;;;;;;5078225;28;20223;-84
2021/01/09 13:02:47;;;;;;;36.03;32.65;;;;;;;;;;5057593;28;20213;-83
2021/01/09 13:05:14;;;;;;;36.13;32.30;;;;;;;;;;5074532;28;20188;-83
2021/01/09 13:07:41;;;;;;;36.08;32.55;;;;;;;;;;5074845;28;20644;-83
2021/01/09 13:10:09;;;;;;;36.33;32.58;;;;;;;;;;5057240;28;20195;-82
2021/01/09 13:12:37;;;;;;;36.85;33.15;;;;;;;;;;5074496;28;20221;-78
2021/01/09 13:15:06;;;;;;;36.88;33.28;;;;;;;;;;5074603;28;20191;-81
2021/01/09 13:17:33;;;;;;;36.63;33.05;;;;;;;;;;5074687;28;20188;-82
2021/01/09 13:20:01;;;;;;;35.10;31.75;;;;;;;;;;5073789;28;20537;-80
2021/01/09 13:22:28;;;;;;;36.47;33.08;;;;;;;;;;5055744;28;20244;-79
2021/01/09 13:24:55;;;;;;;35.58;32.20;;;;;;;;;;5074085;28;20187;-79
2021/01/09 13:27:21;;;;;;;35.22;31.80;;;;;;;;;;5056482;28;20192;-80
2021/01/09 13:29:48;;;;;;;32.92;29.83;;;;;;;;;;5073978;28;20195;-79
2021/01/09 13:32:22;;;;;;;36.10;32.30;;;;;;;;;;5073961;28;20231;-80
2021/01/09 13:34:49;;;;;;;35.10;31.85;;;;;;;;;;5056066;28;20200;-79
2021/01/09 13:37:17;;;;;;;36.05;32.45;;;;;;;;;;5055789;28;20195;-79
2021/01/09 13:39:44;;;;;;;35.78;32.47;;;;;;;;;;5073270;28;20281;-79
2021/01/09 13:42:11;;;;;;;37.35;33.80;;;;;;;;;;5073780;28;20254;-79
2021/01/09 13:44:38;;;;;;;35.00;31.70;;;;;;;;;;5073616;28;20204;-80
2021/01/09 13:47:05;;;;;;;36.72;33.03;;;;;;;;;;5074469;28;20191;-79
2021/01/09 13:49:32;;;;;;;36.05;32.65;;;;;;;;;;5073768;28;20195;-79
2021/01/09 13:51:59;;;;;;;35.95;32.70;;;;;;;;;;5073916;28;20191;-79
2021/01/09 13:54:26;;;;;;;39.67;35.72;;;;;;;;;;5073882;28;20188;-80
2021/01/09 13:56:53;;;;;;;79.50;66.70;;;;;;;;;;5056070;28;20614;-79
2021/01/09 13:59:22;;;;;;;40.72;36.92;;;;;;;;;;5056148;28;20197;-80
2021/01/09 14:01:49;;;;;;;38.00;34.30;;;;;;;;;;5073461;28;20269;-80
2021/01/09 14:04:16;;;;;;;35.97;32.78;;;;;;;;;;5073973;28;20634;-82
2021/01/09 14:06:45;;;;;;;38.58;35.03;;;;;;;;;;5073802;28;20187;-81
2021/01/09 14:09:12;;;;;;;39.25;35.15;;;;;;;;;;5073817;28;20191;-81
2021/01/09 14:11:39;;;;;;;61.83;52.70;;;;;;;;;;5073545;28;20192;-81
2021/01/09 14:14:07;;;;;;;34.42;31.23;;;;;;;;;;5055902;28;20199;-81
2021/01/09 14:16:34;;;;;;;35.22;32.10;;;;;;;;;;5073421;28;20208;-80
2021/01/09 14:19:01;;;;;;;34.72;31.58;;;;;;;;;;5073526;28;20555;-80
2021/01/09 14:21:28;;;;;;;45.33;39.65;;;;;;;;;;5073077;28;20219;-80